Time;durP1;ratioP1;P1;durP2;ratioP2;P2;SDS_P1;SDS_P2;PMS_P1;PMS_P2;Temp;Humidity;BMP_temperature;BMP_pressure;BME280_temperature;BME280_humidity;BME280_pressure;Samples;Min_cycle;Max_cycle;Signal;HPM_P1;HPM_P2
2022/05/14 00:00:07;;;;;;;19.23;4.67;;;;;;;10.82;100.00;101142.88;4962530;28;20027;-74
2022/05/14 00:02:33;;;;;;;17.38;4.30;;;;;;;10.80;100.00;101136.84;4960859;28;20260;-74
2022/05/14 00:04:58;;;;;;;13.35;4.65;;;;;;;10.82;100.00;101137.53;4965880;28;20027;-74
2022/05/14 00:07:24;;;;;;;18.33;4.03;;;;;;;10.79;100.00;101132.50;4948557;28;20045;-74
2022/05/14 00:09:49;;;;;;;13.77;4.20;;;;;;;10.78;100.00;101131.66;4957671;28;20041;-73
2022/05/14 00:15:18;;;;;;;17.85;5.30;;;;;;;10.82;100.00;101136.72;4907324;29;20167;-74
2022/05/14 00:17:46;;;;;;;20.47;4.57;;;;;;;10.85;100.00;101120.38;4891467;29;20478;-74
2022/05/14 00:20:12;;;;;;;19.83;4.93;;;;;;;10.83;100.00;101125.03;4935428;28;20047;-74
2022/05/14 00:22:38;;;;;;;18.02;4.00;;;;;;;10.83;100.00;101120.50;4965591;28;20026;-75
2022/05/14 00:25:04;;;;;;;18.00;4.87;;;;;;;10.85;100.00;101131.06;4962666;28;20046;-74
2022/05/14 00:27:29;;;;;;;16.55;4.93;;;;;;;10.76;100.00;101122.97;4969489;28;20038;-74
2022/05/14 00:29:56;;;;;;;17.40;4.73;;;;;;;10.82;100.00;101131.38;4966741;28;20039;-75
2022/05/14 00:32:21;;;;;;;18.58;4.75;;;;;;;10.77;100.00;101113.13;4965560;28;20524;-75
2022/05/14 00:34:46;;;;;;;14.60;4.50;;;;;;;10.72;100.00;101115.41;4951074;28;20180;-75
2022/05/14 00:37:12;;;;;;;10.90;4.60;;;;;;;10.68;100.00;101122.06;4953023;28;20400;-75
2022/05/14 00:39:37;;;;;;;17.27;5.63;;;;;;;10.63;100.00;101133.22;4966017;28;20117;-75
2022/05/14 00:42:03;;;;;;;20.87;5.27;;;;;;;10.57;100.00;101129.31;4979911;28;20023;-74
2022/05/14 00:44:29;;;;;;;15.73;5.95;;;;;;;10.53;100.00;101125.25;4988249;28;20182;-74
2022/05/14 00:47:04;;;;;;;19.00;5.55;;;;;;;10.64;100.00;101134.03;4977118;28;20038;-73
2022/05/14 00:49:33;;;;;;;17.38;5.32;;;;;;;10.74;100.00;101129.44;4975710;28;20034;-75
2022/05/14 00:52:00;;;;;;;18.10;5.85;;;;;;;10.81;100.00;101130.50;4970611;28;20022;-73
2022/05/14 00:54:52;;;;;;;13.23;5.13;;;;;;;10.76;100.00;101128.31;4987765;28;20034;-75
2022/05/14 00:57:22;;;;;;;19.52;5.60;;;;;;;10.74;100.00;101118.75;4987573;28;20141;-75
2022/05/14 00:59:49;;;;;;;14.70;5.75;;;;;;;10.78;100.00;101128.16;4987371;28;20037;-75
2022/05/14 01:02:15;;;;;;;19.90;5.82;;;;;;;10.74;100.00;101118.75;4969792;28;20034;-74
2022/05/14 01:04:42;;;;;;;24.93;7.60;;;;;;;10.73;100.00;101115.25;4958757;28;20066;-74
2022/05/14 01:07:12;;;;;;;21.92;5.25;;;;;;;10.69;100.00;101105.88;4955332;28;20029;-75
2022/05/14 01:09:44;;;;;;;17.38;6.03;;;;;;;10.68;100.00;101119.41;4971573;28;20087;-75
2022/05/14 01:12:10;;;;;;;18.52;5.38;;;;;;;10.63;100.00;101111.00;4987211;28;20069;-74
2022/05/14 01:14:36;;;;;;;15.90;5.93;;;;;;;10.51;100.00;101113.06;4971366;28;20023;-74
2022/05/14 01:17:04;;;;;;;20.50;6.10;;;;;;;10.51;100.00;101121.94;4971718;28;20287;-74
2022/05/14 01:19:33;;;;;;;17.45;6.13;;;;;;;10.54;100.00;101113.59;4978762;28;20078;-75
2022/05/14 01:22:20;;;;;;;24.80;5.60;;;;;;;10.56;100.00;101116.13;4972532;28;20034;-74
2022/05/14 01:27:49;;;;;;;24.65;8.57;;;;;;;10.35;100.00;101119.94;4987301;28;20049;-75
2022/05/14 01:30:16;;;;;;;16.92;7.38;;;;;;;10.39;100.00;101116.97;4971141;28;20096;-74
2022/05/14 01:32:41;;;;;;;;;;;;;;;10.48;100.00;101129.38;4986198;28;20085;-75
2022/05/14 01:35:07;;;;;;;;;;;;;;;10.37;100.00;101125.09;4956423;28;19913;-74
2022/05/14 01:37:34;;;;;;;;;;;;;;;10.30;100.00;101127.56;4987531;28;19960;-75
2022/05/14 01:40:00;;;;;;;21.55;6.68;;;;;;;10.30;100.00;101124.91;4970505;28;20284;-74
2022/05/14 01:42:25;;;;;;;14.93;6.22;;;;;;;10.21;100.00;101127.56;4970451;28;20037;-75
2022/05/14 01:44:51;;;;;;;16.17;5.53;;;;;;;10.20;100.00;101132.06;4987011;28;20026;-75
2022/05/14 01:47:17;;;;;;;17.43;7.50;;;;;;;10.26;100.00;101136.00;4970975;28;20554;-74
2022/05/14 01:49:47;;;;;;;23.58;6.72;;;;;;;10.21;100.00;101131.09;4970536;28;20030;-75
2022/05/14 01:52:14;;;;;;;14.20;6.25;;;;;;;10.19;100.00;101135.75;4971932;28;20070;-75
2022/05/14 01:54:39;;;;;;;15.05;6.65;;;;;;;10.19;100.00;101145.59;4970598;28;20395;-74
2022/05/14 01:57:05;;;;;;;29.97;7.10;;;;;;;10.21;100.00;101135.59;4970491;28;20030;-74
2022/05/14 01:59:30;;;;;;;19.87;7.57;;;;;;;10.17;100.00;101142.22;4986312;28;20097;-74
2022/05/14 02:01:56;;;;;;;25.20;7.93;;;;;;;10.19;100.00;101150.94;4985992;28;20105;-74
2022/05/14 02:04:21;;;;;;;22.67;7.37;;;;;;;10.21;100.00;101141.78;4970542;28;20030;-74
2022/05/14 02:06:47;;;;;;;20.05;7.47;;;;;;;10.24;100.00;101132.63;4970241;28;20126;-74
2022/05/14 02:09:14;;;;;;;19.17;6.70;;;;;;;10.31;100.00;101133.72;4987707;28;20034;-74
2022/05/14 02:11:43;;;;;;;19.75;6.75;;;;;;;10.38;100.00;101142.81;4986107;28;20050;-74
2022/05/14 02:14:27;;;;;;;20.95;8.65;;;;;;;10.39;100.00;101124.97;4986638;28;20528;-74
2022/05/14 02:16:52;;;;;;;17.58;7.45;;;;;;;10.43;100.00;101134.34;4978128;28;20129;-74
2022/05/14 02:19:18;;;;;;;17.73;6.87;;;;;;;10.44;100.00;101128.88;4986103;28;20022;-75
2022/05/14 02:21:44;;;;;;;18.95;7.88;;;;;;;10.44;100.00;101136.00;4977757;28;20202;-74
2022/05/14 02:24:10;;;;;;;17.35;7.40;;;;;;;10.45;100.00;101121.69;4978234;28;20054;-75
2022/05/14 02:26:36;;;;;;;21.33;7.27;;;;;;;10.50;100.00;101122.91;4986114;28;20510;-74
2022/05/14 02:29:01;;;;;;;18.03;6.37;;;;;;;10.55;100.00;101125.94;4970121;28;20558;-75
2022/05/14 02:31:27;;;;;;;18.27;7.28;;;;;;;10.50;100.00;101125.56;4985887;28;20041;-75
2022/05/14 02:33:53;;;;;;;16.02;6.60;;;;;;;10.55;100.00;101122.44;4985957;28;20026;-75
2022/05/14 02:36:19;;;;;;;25.15;7.13;;;;;;;10.62;100.00;101133.34;4987223;28;20881;-75
2022/05/14 02:38:44;;;;;;;19.48;7.45;;;;;;;10.56;100.00;101111.63;4985859;28;20038;-74
2022/05/14 02:41:10;;;;;;;23.10;7.53;;;;;;;10.59;100.00;101117.66;4985903;28;20042;-74
2022/05/14 02:43:36;;;;;;;19.17;7.23;;;;;;;10.61;100.00;101129.84;4987088;28;20029;-75
2022/05/14 02:46:03;;;;;;;25.52;7.38;;;;;;;10.64;100.00;101120.69;4969554;28;20423;-74
2022/05/14 02:48:28;;;;;;;22.67;8.07;;;;;;;10.60;100.00;101114.81;4985526;28;20053;-75
2022/05/14 02:50:57;;;;;;;23.50;7.30;;;;;;;10.64;100.00;101112.69;4985155;28;20069;-74
2022/05/14 02:53:22;;;;;;;19.50;7.90;;;;;;;10.68;100.00;101141.59;4984644;28;20061;-74
2022/05/14 02:55:48;;;;;;;26.83;9.30;;;;;;;10.65;100.00;101127.69;4969226;28;20121;-75
2022/05/14 02:59:06;;;;;;;19.33;8.13;;;;;;;10.68;100.00;101135.44;4985085;28;20730;-75
2022/05/14 03:00:59;;;;;;;20.52;7.22;;;;;;;10.73;100.00;101143.81;4976793;28;20105;-73
2022/05/14 03:03:25;;;;;;;21.37;7.40;;;;;;;10.76;100.00;101138.97;4985633;28;20062;-74
2022/05/14 03:05:51;;;;;;;19.63;8.82;;;;;;;10.78;100.00;101141.50;4986395;28;20038;-75
2022/05/14 03:08:16;;;;;;;16.37;7.20;;;;;;;10.80;100.00;101142.19;4969302;28;20189;-74
2022/05/14 03:10:42;;;;;;;19.20;7.85;;;;;;;10.78;100.00;101144.19;4984979;28;20065;-75
2022/05/14 03:13:07;;;;;;;24.47;8.77;;;;;;;10.86;100.00;101154.09;4968960;28;20026;-75
2022/05/14 03:15:33;;;;;;;17.40;7.67;;;;;;;10.83;100.00;101155.22;4985215;28;20034;-74
2022/05/14 03:17:58;;;;;;;25.00;7.63;;;;;;;10.81;100.00;101159.88;4985112;28;20053;-74
2022/05/14 03:20:24;;;;;;;20.10;8.50;;;;;;;10.84;100.00;101158.75;4985153;28;20041;-74
2022/05/14 03:22:49;;;;;;;23.80;7.93;;;;;;;10.85;100.00;101166.59;4984987;28;20570;-75
2022/05/14 03:25:15;;;;;;;22.93;8.50;;;;;;;10.81;100.00;101167.91;4985225;28;20037;-75
2022/05/14 03:27:40;;;;;;;24.30;8.23;;;;;;;10.90;100.00;101183.00;4969052;28;20483;-75
2022/05/14 03:30:06;;;;;;;20.33;8.13;;;;;;;10.89;100.00;101170.66;4968746;28;20113;-75
2022/05/14 03:32:32;;;;;;;20.17;9.32;;;;;;;10.96;100.00;101190.41;4968882;28;20033;-75
2022/05/14 03:35:00;;;;;;;27.73;10.07;;;;;;;10.87;100.00;101183.31;4974038;28;20106;-75
2022/05/14 03:37:25;;;;;;;27.52;10.25;;;;;;;10.86;100.00;101181.63;4972847;28;20391;-75
2022/05/14 03:39:51;;;;;;;22.30;8.50;;;;;;;10.84;100.00;101188.13;4984365;28;20038;-74
2022/05/14 03:42:18;;;;;;;18.83;8.60;;;;;;;10.89;100.00;101196.53;4970124;28;20382;-75
2022/05/14 03:44:44;;;;;;;25.35;7.95;;;;;;;10.90;100.00;101204.38;4962326;28;20041;-74
2022/05/14 03:47:09;;;;;;;23.57;8.93;;;;;;;10.92;100.00;101198.91;4963356;28;20019;-74
2022/05/14 03:49:35;;;;;;;25.03;8.77;;;;;;;11.02;100.00;101194.28;4953671;28;20399;-74
2022/05/14 03:52:01;;;;;;;23.23;10.13;;;;;;;10.95;100.00;101202.06;4968334;28;20258;-75
2022/05/14 03:54:28;;;;;;;;;;;;;;;10.93;100.00;101190.75;4986918;28;20038;-75
2022/05/14 03:56:53;;;;;;;21.27;8.50;;;;;;;10.97;100.00;101200.09;4985033;28;19909;-74
2022/05/14 03:59:18;;;;;;;20.50;8.73;;;;;;;10.96;100.00;101197.59;4984813;28;20043;-73
2022/05/14 04:01:44;;;;;;;30.60;11.53;;;;;;;10.99;100.00;101187.44;4968573;28;20096;-74
2022/05/14 04:04:10;;;;;;;28.80;9.57;;;;;;;10.97;100.00;101191.25;4985616;28;20439;-74
2022/05/14 04:06:35;;;;;;;24.77;9.73;;;;;;;11.03;100.00;101198.66;4988786;28;20462;-75
2022/05/14 04:09:02;;;;;;;23.70;8.53;;;;;;;11.05;100.00;101196.69;4980782;28;20030;-75
2022/05/14 04:11:28;;;;;;;21.65;9.93;;;;;;;11.08;100.00;101192.84;4989130;28;20503;-74
2022/05/14 04:13:56;;;;;;;22.27;7.90;;;;;;;11.09;100.00;101206.03;4988602;28;20034;-73
2022/05/14 04:16:21;;;;;;;24.40;10.43;;;;;;;11.08;100.00;101204.38;4987653;28;20026;-75
2022/05/14 04:18:47;;;;;;;21.50;8.43;;;;;;;11.07;100.00;101204.50;4984392;28;20035;-75
2022/05/14 04:21:12;;;;;;;26.87;11.00;;;;;;;11.02;100.00;101214.84;4970672;28;20030;-75
2022/05/14 04:23:38;;;;;;;21.63;9.00;;;;;;;11.05;100.00;101215.38;4988734;28;20069;-76
2022/05/14 04:26:03;;;;;;;19.48;8.85;;;;;;;11.06;100.00;101224.22;4988674;28;20295;-76
2022/05/14 04:28:29;;;;;;;27.47;9.00;;;;;;;11.07;100.00;101229.41;4988359;28;20057;-75
2022/05/14 04:30:55;;;;;;;23.67;8.07;;;;;;;11.07;100.00;101220.56;4985519;28;21005;-75
2022/05/14 04:33:21;;;;;;;26.27;9.02;;;;;;;11.12;100.00;101223.59;4983205;28;20034;-74
2022/05/14 04:35:47;;;;;;;24.55;9.23;;;;;;;11.09;100.00;101223.91;4972140;28;20113;-74
2022/05/14 04:38:13;;;;;;;19.60;7.60;;;;;;;11.06;100.00;101216.22;4988093;28;20081;-75
2022/05/14 04:40:39;;;;;;;22.08;7.82;;;;;;;11.07;100.00;101223.22;4972170;28;20034;-75
2022/05/14 04:43:06;;;;;;;29.40;7.97;;;;;;;11.13;100.00;101222.63;4989354;28;20033;-75
2022/05/14 04:45:33;;;;;;;25.55;8.52;;;;;;;11.05;100.00;101217.19;4979216;28;20493;-74
2022/05/14 04:47:58;;;;;;;27.43;9.63;;;;;;;11.08;100.00;101227.59;4994023;28;20045;-75
2022/05/14 04:50:24;;;;;;;;;;;;;;;11.15;100.00;101228.66;4972521;28;20580;-75
2022/05/14 04:52:50;;;;;;;;;;;;;;;11.15;100.00;101223.31;4981706;28;19910;-75
2022/05/14 04:55:16;;;;;;;18.00;7.40;;;;;;;11.17;100.00;101232.00;4950063;28;19910;-75
2022/05/14 04:57:43;;;;;;;24.92;8.65;;;;;;;11.19;100.00;101230.88;4966353;28;20039;-75
2022/05/14 05:00:13;;;;;;;24.77;8.43;;;;;;;11.24;100.00;101226.84;4980679;28;20399;-74
2022/05/14 05:05:25;;;;;;;21.95;8.15;;;;;;;11.27;100.00;101216.72;4973459;28;20031;-74
2022/05/14 05:07:50;;;;;;;34.45;9.23;;;;;;;11.28;100.00;101223.72;4984305;28;20085;-75
2022/05/14 05:10:16;;;;;;;20.83;9.57;;;;;;;11.28;100.00;101225.56;4979538;28;20030;-75
2022/05/14 05:12:42;;;;;;;21.75;8.50;;;;;;;11.37;100.00;101222.78;4971303;28;20035;-75
2022/05/14 05:15:08;;;;;;;33.00;9.63;;;;;;;11.35;100.00;101221.28;4987233;28;20042;-75
2022/05/14 05:17:34;;;;;;;28.60;8.45;;;;;;;11.34;100.00;101225.78;4988857;28;20026;-74
2022/05/14 05:19:59;;;;;;;27.03;8.57;;;;;;;11.35;100.00;101224.78;4987145;28;20038;-75
2022/05/14 05:22:24;;;;;;;25.27;8.63;;;;;;;11.46;100.00;101221.03;4988597;28;20066;-75
2022/05/14 05:24:50;;;;;;;25.37;8.73;;;;;;;11.54;100.00;101222.91;4987411;28;20074;-74
2022/05/14 05:27:15;;;;;;;29.55;8.90;;;;;;;11.58;100.00;101225.09;4987358;28;20037;-75
2022/05/14 05:29:41;;;;;;;33.77;10.13;;;;;;;11.58;100.00;101227.78;4988278;28;20039;-75
2022/05/14 05:32:07;;;;;;;20.90;6.67;;;;;;;11.60;100.00;101225.78;4985701;28;20022;-75
2022/05/14 05:34:32;;;;;;;24.83;7.72;;;;;;;11.67;100.00;101223.34;4987221;28;20038;-74
2022/05/14 05:36:58;;;;;;;26.63;7.88;;;;;;;11.79;100.00;101243.47;4970926;28;20147;-75
2022/05/14 05:39:23;;;;;;;23.20;7.77;;;;;;;11.83;100.00;101244.81;4988314;28;20523;-75
2022/05/14 05:41:49;;;;;;;25.67;8.50;;;;;;;11.86;100.00;101242.84;4985607;28;20079;-74
2022/05/14 05:44:14;;;;;;;22.73;8.60;;;;;;;11.90;100.00;101252.25;4987187;28;20088;-74
2022/05/14 05:46:39;;;;;;;31.60;9.17;;;;;;;11.94;100.00;101246.44;4970912;28;20046;-75
2022/05/14 05:49:05;;;;;;;22.93;7.33;;;;;;;12.03;100.00;101244.63;4986757;28;20498;-75
2022/05/14 05:51:31;;;;;;;26.20;7.67;;;;;;;12.11;100.00;101254.53;4970359;28;20026;-75
2022/05/14 05:56:47;;;;;;;25.63;6.82;;;;;;;12.11;100.00;101259.91;4988072;28;20416;-75
2022/05/14 05:59:17;;;;;;;28.85;8.05;;;;;;;12.00;100.00;101251.13;4987857;28;20046;-75
2022/05/14 06:01:43;;;;;;;22.67;7.95;;;;;;;12.07;100.00;101270.06;4986223;28;20049;-75
2022/05/14 06:04:09;;;;;;;28.15;8.65;;;;;;;12.05;100.00;101269.38;4986986;28;20026;-75
2022/05/14 06:06:37;;;;;;;35.35;7.38;;;;;;;11.96;100.00;101264.97;4987646;28;20042;-74
2022/05/14 06:09:02;;;;;;;28.70;8.85;;;;;;;12.06;100.00;101260.38;4986230;28;20026;-76
2022/05/14 06:11:30;;;;;;;28.23;6.63;;;;;;;12.21;100.00;101258.75;4969681;28;20030;-76
2022/05/14 06:13:56;;;;;;;25.80;7.43;;;;;;;12.38;100.00;101264.19;4977703;28;20399;-74
2022/05/14 06:16:21;;;;;;;23.65;6.47;;;;;;;12.50;100.00;101257.53;4986032;28;20046;-75
2022/05/14 06:18:47;;;;;;;36.13;9.15;;;;;;;12.60;100.00;101242.16;4967064;28;20022;-75
2022/05/14 06:21:13;;;;;;;24.33;6.30;;;;;;;12.82;100.00;101245.22;4979355;28;20035;-75
2022/05/14 06:23:39;;;;;;;32.25;8.35;;;;;;;12.75;100.00;101228.13;4980077;28;20018;-75
2022/05/14 06:26:05;;;;;;;36.67;7.30;;;;;;;12.77;100.00;101231.47;4971848;28;20092;-75
2022/05/14 06:28:30;;;;;;;32.80;7.40;;;;;;;12.76;100.00;101227.13;4985121;28;20560;-75
2022/05/14 06:30:57;;;;;;;18.98;5.82;;;;;;;12.96;100.00;101241.06;4985190;28;20061;-75
2022/05/14 06:33:23;;;;;;;26.10;6.40;;;;;;;13.09;100.00;101241.41;4985898;28;20101;-75
2022/05/14 06:35:48;;;;;;;34.13;9.20;;;;;;;13.27;100.00;101227.81;4987025;28;20185;-75
2022/05/14 06:38:14;;;;;;;40.95;7.57;;;;;;;13.45;100.00;101225.81;4986913;28;20038;-74
2022/05/14 06:40:40;;;;;;;26.43;6.60;;;;;;;13.61;100.00;101214.25;4982779;28;20049;-75
2022/05/14 06:43:06;;;;;;;27.33;7.05;;;;;;;13.87;100.00;101200.56;4969361;28;20033;-75
2022/05/14 06:45:32;;;;;;;36.92;7.55;;;;;;;13.77;100.00;101177.66;4986786;28;20034;-74
2022/05/14 06:47:58;;;;;;;23.80;6.18;;;;;;;13.43;100.00;101192.13;4984704;28;20468;-75
2022/05/14 06:50:25;;;;;;;25.15;7.30;;;;;;;13.36;100.00;101229.53;4986735;28;20037;-75
2022/05/14 06:52:54;;;;;;;39.03;8.85;;;;;;;13.44;100.00;101234.06;4986289;28;20030;-75
2022/05/14 06:55:22;;;;;;;37.63;6.53;;;;;;;13.37;100.00;101228.53;4985503;28;20044;-75
2022/05/14 06:57:50;;;;;;;27.05;6.72;;;;;;;13.66;100.00;101227.97;4967752;28;20077;-75
2022/05/14 07:00:16;;;;;;;24.88;6.80;;;;;;;14.26;100.00;101228.47;4984924;28;20038;-75
2022/05/14 07:02:43;;;;;;;23.02;6.75;;;;;;;14.45;100.00;101186.91;4985096;28;20026;-75
2022/05/14 07:07:53;;;;;;;24.85;5.97;;;;;;;14.81;100.00;101180.97;4985032;28;20046;-75
2022/05/14 07:10:19;;;;;;;25.20;6.97;;;;;;;14.85;100.00;101161.59;4985006;28;20030;-75
2022/05/14 07:12:44;;;;;;;26.50;5.47;;;;;;;14.83;100.00;101182.44;4968604;28;20050;-76
2022/05/14 07:15:12;;;;;;;31.13;6.03;;;;;;;14.56;100.00;101175.75;4985790;28;20034;-76
2022/05/14 07:17:38;;;;;;;25.90;5.68;;;;;;;14.28;100.00;101160.13;4977214;28;20074;-76
2022/05/14 07:20:05;;;;;;;34.72;8.70;;;;;;;14.56;100.00;101181.97;4968185;28;20014;-76
2022/05/14 07:22:30;;;;;;;30.52;6.93;;;;;;;14.32;100.00;101158.75;4969643;28;20061;-76
2022/05/14 07:24:56;;;;;;;;;;;;;;;14.63;100.00;101181.25;4973907;28;20019;-76
2022/05/14 07:27:22;;;;;;;;;;;;;;;14.42;100.00;101160.38;4981767;28;20299;-76
2022/05/14 07:29:47;;;;;;;24.13;6.27;;;;;;;14.29;100.00;101220.03;4985702;28;19936;-76
2022/05/14 07:32:15;;;;;;;35.57;6.63;;;;;;;14.23;100.00;101226.94;4976711;28;20030;-76
2022/05/14 07:34:42;;;;;;;25.42;7.30;;;;;;;14.19;100.00;101228.31;4978088;28;20026;-76
2022/05/14 07:37:13;;;;;;;;;;;;;;;14.00;100.00;101216.16;4976018;28;20034;-75
2022/05/14 07:39:47;;;;;;;24.48;6.22;;;;;;;13.99;100.00;101227.88;4978795;28;19917;-76
2022/05/14 07:42:17;;;;;;;27.60;6.15;;;;;;;14.20;100.00;101232.66;4964401;28;20057;-76
2022/05/14 07:44:47;;;;;;;25.15;5.63;;;;;;;14.88;100.00;101238.38;4987648;28;20042;-76
2022/05/14 07:47:13;;;;;;;23.67;6.80;;;;;;;15.25;100.00;101207.16;4964611;28;20025;-75
2022/05/14 07:49:40;;;;;;;25.88;5.63;;;;;;;15.91;100.00;101153.50;4979859;28;20874;-76
2022/05/14 07:52:06;;;;;;;19.60;5.25;;;;;;;16.00;100.00;101031.19;4981833;28;20026;-76
2022/05/14 07:54:31;;;;;;;;;;;;;;;16.48;95.17;101025.19;4990711;28;20026;-76
2022/05/14 07:56:58;;;;;;;;;;;;;;;16.79;94.27;101054.53;4965044;28;20399;-76
2022/05/14 07:59:24;;;;;;;20.75;4.53;;;;;;;16.69;89.95;100990.09;4990495;28;20036;-76
2022/05/14 08:01:49;;;;;;;20.50;5.70;;;;;;;16.29;89.69;100980.91;4961877;28;20514;-75
2022/05/14 08:04:14;;;;;;;21.97;4.87;;;;;;;16.55;90.58;101034.16;4990409;28;20026;-74
2022/05/14 08:06:40;;;;;;;23.00;5.23;;;;;;;16.66;87.84;101012.91;4972044;28;20104;-76
2022/05/14 08:09:06;;;;;;;14.90;4.07;;;;;;;16.91;87.05;101009.81;4981641;28;20042;-76
2022/05/14 08:11:32;;;;;;;16.35;4.28;;;;;;;16.84;87.39;101017.00;4960282;28;20122;-76
2022/05/14 08:13:58;;;;;;;18.70;4.47;;;;;;;16.24;88.98;101006.53;4988899;28;20160;-76
2022/05/14 08:16:24;;;;;;;21.33;4.60;;;;;;;16.85;88.60;101064.50;4966001;28;20125;-75
2022/05/14 08:18:50;;;;;;;19.70;4.93;;;;;;;16.66;83.84;100963.56;4984814;28;20117;-76
2022/05/14 08:26:51;;;;;;;21.20;4.65;;;;;;;17.79;84.92;101082.06;4988442;28;20096;-75
2022/05/14 08:29:17;;;;;;;18.73;4.75;;;;;;;18.08;79.77;101018.81;4989911;28;20026;-76
2022/05/14 08:31:43;;;;;;;;;;;;;;;18.08;76.36;100940.47;4977453;28;20030;-76
2022/05/14 08:34:08;;;;;;;26.80;5.80;;;;;;;18.66;73.77;100953.28;4968941;28;20243;-77
2022/05/14 08:36:34;;;;;;;21.65;4.72;;;;;;;18.24;75.17;100960.81;4969004;28;20081;-75
2022/05/14 08:39:00;;;;;;;18.15;4.25;;;;;;;18.11;75.56;100967.88;4989090;28;20488;-76
2022/05/14 08:41:25;;;;;;;19.30;5.10;;;;;;;18.52;73.16;100956.03;4983626;28;20027;-76
2022/05/14 08:43:58;;;;;;;19.90;5.18;;;;;;;19.14;68.92;100913.22;4970714;28;20093;-77
2022/05/14 08:46:25;;;;;;;20.50;4.43;;;;;;;18.98;67.73;100892.06;4970405;28;20530;-76
2022/05/14 08:48:55;;;;;;;15.43;4.45;;;;;;;18.22;72.43;100962.91;4968436;28;20061;-76
2022/05/14 08:51:32;;;;;;;18.85;4.05;;;;;;;17.41;73.85;100928.69;4967407;28;20126;-75
2022/05/14 08:53:59;;;;;;;17.98;3.83;;;;;;;18.07;73.73;101004.44;4984628;28;20038;-76
2022/05/14 08:56:25;;;;;;;13.73;4.68;;;;;;;18.65;70.74;101003.84;4984217;28;20034;-76
2022/05/14 08:59:17;;;;;;;16.50;3.38;;;;;;;18.90;69.71;101004.06;4988886;28;20031;-77
2022/05/14 09:01:44;;;;;;;14.52;4.68;;;;;;;19.02;66.98;100935.78;4971349;28;20046;-77
2022/05/14 09:04:12;;;;;;;15.98;4.00;;;;;;;19.13;65.75;100924.28;4989078;28;20101;-76
2022/05/14 09:06:39;;;;;;;12.35;4.13;;;;;;;18.80;67.06;100927.94;4982379;28;20045;-76
2022/05/14 09:09:08;;;;;;;15.65;3.70;;;;;;;18.05;67.76;100892.22;4988608;28;20097;-77
2022/05/14 09:11:50;;;;;;;15.20;3.80;;;;;;;17.34;72.62;100954.81;4988507;28;20846;-78
2022/05/14 09:14:21;;;;;;;14.27;3.13;;;;;;;17.36;78.63;101118.19;4981961;28;20515;-76
2022/05/14 09:16:50;;;;;;;14.93;3.95;;;;;;;17.23;78.54;101089.28;4985319;28;20039;-76
2022/05/14 09:19:19;;;;;;;11.65;5.18;;;;;;;16.51;77.73;101003.28;4970947;28;20034;-75
2022/05/14 09:21:50;;;;;;;12.10;3.90;;;;;;;16.57;81.80;101099.50;4987018;28;20038;-76
2022/05/14 09:24:24;;;;;;;14.00;4.95;;;;;;;16.67;81.40;101090.06;4988277;28;20057;-76
2022/05/14 09:26:50;;;;;;;20.55;4.53;;;;;;;16.20;79.89;101017.91;4970758;28;20034;-76
2022/05/14 09:29:29;;;;;;;20.42;4.05;;;;;;;16.85;79.06;101089.59;4988440;28;20018;-76
2022/05/14 09:31:58;;;;;;;13.95;3.38;;;;;;;17.73;75.78;101081.84;4969917;28;20175;-76
2022/05/14 09:34:24;;;;;;;16.95;3.75;;;;;;;17.30;73.28;100987.59;4988115;28;20076;-76
2022/05/14 09:37:07;;;;;;;12.32;2.70;;;;;;;17.41;74.05;101032.06;4987009;28;20049;-76
2022/05/14 09:39:33;;;;;;;13.48;4.35;;;;;;;17.29;73.63;101015.59;4984580;28;20113;-76
2022/05/14 09:42:04;;;;;;;14.93;3.97;;;;;;;17.95;73.28;101100.63;4964959;28;20953;-77
2022/05/14 09:44:49;;;;;;;16.35;3.70;;;;;;;18.20;72.58;101102.81;4966411;28;20106;-76
2022/05/14 09:47:27;;;;;;;18.30;3.70;;;;;;;18.58;69.64;101075.22;4983206;28;20045;-75
2022/05/14 09:50:03;;;;;;;16.05;3.67;;;;;;;18.06;68.68;100973.09;4986693;28;20285;-75
2022/05/14 09:52:34;;;;;;;21.33;4.30;;;;;;;17.13;72.65;100999.75;4970077;28;20038;-77
2022/05/14 09:55:04;;;;;;;17.23;4.15;;;;;;;16.71;78.53;101074.31;4971888;28;20108;-75
2022/05/14 09:57:38;;;;;;;20.92;4.55;;;;;;;17.50;78.35;101186.59;4983768;28;20057;-76
2022/05/14 10:00:09;;;;;;;24.48;4.50;;;;;;;18.12;73.49;101120.88;4962777;28;20035;-77
2022/05/14 10:02:56;;;;;;;17.23;3.65;;;;;;;18.00;70.24;101019.00;4965362;28;20121;-76
2022/05/14 10:05:56;;;;;;;19.55;3.92;;;;;;;17.51;75.15;101096.47;4981825;28;20038;-75
2022/05/14 10:08:49;;;;;;;11.77;3.13;;;;;;;16.99;75.73;101076.22;4987788;28;20038;-76
2022/05/14 10:11:26;;;;;;;17.95;4.60;;;;;;;16.32;80.83;101134.06;4979437;28;20062;-75
2022/05/14 10:14:13;;;;;;;22.27;4.65;;;;;;;16.04;83.50;101151.81;4986335;28;20444;-75
2022/05/14 10:17:05;;;;;;;20.80;4.13;;;;;;;16.15;86.05;101204.34;4986556;28;20346;-77
2022/05/14 10:19:48;;;;;;;16.23;4.10;;;;;;;16.33;87.54;101238.97;4986831;28;20627;-76
2022/05/14 10:28:49;;;;;;;21.38;3.75;;;;;;;16.63;85.07;101234.34;4979945;28;20033;-75
2022/05/14 10:31:39;;;;;;;18.98;4.50;;;;;;;16.08;86.35;101192.63;4984434;28;20034;-76
2022/05/14 10:34:12;;;;;;;13.32;3.42;;;;;;;16.46;87.20;101254.47;4983968;28;20038;-76
2022/05/14 10:36:45;;;;;;;14.95;4.93;;;;;;;17.25;85.65;101281.47;4979073;28;20129;-76
2022/05/14 10:39:21;;;;;;;20.10;4.53;;;;;;;17.14;79.96;101157.03;4987073;28;20066;-75
2022/05/14 10:41:52;;;;;;;15.93;4.82;;;;;;;18.67;74.39;101193.78;4986993;28;20043;-77
2022/05/14 10:44:38;;;;;;;14.00;4.25;;;;;;;17.65;73.42;101037.97;4986006;28;20054;-76
2022/05/14 10:47:07;;;;;;;21.15;4.22;;;;;;;16.91;77.81;101106.06;4985787;28;20035;-77
2022/05/14 10:49:49;;;;;;;15.75;4.25;;;;;;;17.36;79.14;101193.75;4975792;28;20097;-76
2022/05/14 10:52:17;;;;;;;19.05;3.72;;;;;;;18.74;73.68;101193.78;4968008;28;20035;-76
2022/05/14 10:54:44;;;;;;;19.05;3.72;;;;;;;19.40;67.34;101084.72;4966136;28;20113;-76
2022/05/14 10:57:14;;;;;;;17.40;3.80;;;;;;;19.66;65.45;101059.41;4978845;28;20062;-76
2022/05/14 11:00:20;;;;;;;11.45;3.13;;;;;;;19.85;64.17;101081.25;4975125;28;20037;-77
2022/05/14 11:02:56;;;;;;;13.40;4.15;;;;;;;20.02;63.42;101066.97;4986402;28;20069;-76
2022/05/14 11:05:34;;;;;;;11.10;3.00;;;;;;;20.93;60.03;101055.88;4985264;28;20045;-76
2022/05/14 11:08:12;;;;;;;14.90;3.08;;;;;;;20.31;58.22;100909.34;4983807;28;20488;-77
2022/05/14 11:10:39;;;;;;;14.70;3.80;;;;;;;19.23;57.39;100753.31;4985885;28;20049;-76
2022/05/14 11:13:12;;;;;;;9.05;2.88;;;;;;;20.23;60.68;101060.38;4961272;28;20018;-76
2022/05/14 11:15:39;;;;;;;14.85;4.28;;;;;;;20.39;58.90;101002.09;4986333;28;20125;-77
2022/05/14 11:18:06;;;;;;;14.48;3.72;;;;;;;20.43;57.63;100981.59;4986168;28;20030;-77
2022/05/14 11:20:31;;;;;;;9.52;2.92;;;;;;;21.33;56.81;101029.16;4968675;28;20037;-77
2022/05/14 11:23:24;;;;;;;9.93;2.77;;;;;;;21.83;56.13;101050.69;4985876;28;20018;-76
2022/05/14 11:26:12;;;;;;;12.95;2.85;;;;;;;21.28;56.02;100997.25;4983163;28;20425;-76
2022/05/14 11:28:38;;;;;;;10.75;2.95;;;;;;;20.85;54.61;100914.00;4968781;28;20026;-76
2022/05/14 11:31:18;;;;;;;10.98;2.72;;;;;;;20.20;55.60;100860.22;4985836;28;20072;-78
2022/05/14 11:33:46;;;;;;;8.02;2.55;;;;;;;20.23;56.02;100919.44;4984938;28;20450;-77
2022/05/14 11:36:11;;;;;;;11.25;3.25;;;;;;;19.14;58.38;100852.88;4986078;28;20468;-77
2022/05/14 11:38:40;;;;;;;14.27;3.57;;;;;;;19.28;58.93;100938.38;4985983;28;20149;-76
2022/05/14 11:41:14;;;;;;;11.88;3.05;;;;;;;18.89;60.63;100940.16;4985945;28;20026;-77
2022/05/14 11:43:43;;;;;;;12.95;2.63;;;;;;;18.13;63.48;100960.41;4967488;28;20093;-76
2022/05/14 11:46:25;;;;;;;7.80;3.03;;;;;;;18.43;63.36;101008.66;4980794;28;20023;-76